createdAt,value
2024-01-16T00:01:31.398Z,99840.31
2024-01-16T00:04:16.374Z,99848.69
2024-01-16T00:07:01.949Z,99843.53
2024-01-16T00:09:47.247Z,99858.47
2024-01-16T00:12:32.158Z,99854.69
2024-01-16T00:15:17.043Z,99869.34
2024-01-16T00:18:02.014Z,99870.22
2024-01-16T00:20:47.483Z,99876.09
2024-01-16T00:23:32.751Z,99874.13
2024-01-16T00:26:22.482Z,99880.91
2024-01-16T00:29:08.032Z,99878.19
2024-01-16T00:31:53.503Z,99882.31
2024-01-16T00:34:38.529Z,99883.88
2024-01-16T00:37:23.663Z,99900.13
2024-01-16T00:40:08.808Z,99894.78
2024-01-16T00:42:53.912Z,99899.94
2024-01-16T00:45:38.769Z,99896.06
2024-01-16T00:48:23.733Z,99888.16
2024-01-16T00:51:10.267Z,99888.94
2024-01-16T00:53:55.679Z,99880.13
2024-01-16T00:56:42.999Z,99872.41
2024-01-16T00:59:28.355Z,99878.63
2024-01-16T01:02:13.896Z,99877.28
2024-01-16T01:04:59.010Z,99876.22
2024-01-16T01:07:43.992Z,99871.81
2024-01-16T01:10:29.002Z,99872.41
2024-01-16T01:13:14.185Z,99878.91
2024-01-16T01:15:59.340Z,99890.16
2024-01-16T01:18:44.262Z,99887.91
2024-01-16T01:21:30.674Z,99885.34
2024-01-16T01:24:15.597Z,99892.69
2024-01-16T01:27:01.307Z,99890.91
2024-01-16T01:29:46.377Z,99888.00
2024-01-16T01:32:31.861Z,99886.47
2024-01-16T01:35:18.498Z,99886.69
2024-01-16T01:38:03.605Z,99886.88
2024-01-16T01:40:48.577Z,99873.97
2024-01-16T01:43:33.533Z,99877.84
2024-01-16T01:46:20.120Z,99884.13
2024-01-16T01:49:05.700Z,99883.59
2024-01-16T01:51:50.932Z,99884.13
2024-01-16T01:54:37.911Z,99878.97
2024-01-16T01:57:23.099Z,99894.97
2024-01-16T02:00:08.505Z,99901.00
2024-01-16T02:02:53.805Z,99900.19
2024-01-16T02:05:40.383Z,99901.81
2024-01-16T02:08:25.784Z,99920.16
2024-01-16T02:11:10.766Z,99924.63
2024-01-16T02:13:56.129Z,99923.50
2024-01-16T02:16:42.882Z,99925.22
2024-01-16T02:19:27.938Z,99932.63
2024-01-16T02:22:19.581Z,99924.59
2024-01-16T02:25:04.951Z,99921.00
2024-01-16T02:27:49.913Z,99930.47
2024-01-16T02:30:35.121Z,99933.34
2024-01-16T02:33:20.258Z,99935.69
2024-01-16T02:36:05.518Z,99939.44
2024-01-16T02:38:50.779Z,99941.84
2024-01-16T02:41:35.700Z,99932.06
2024-01-16T02:44:20.627Z,99944.88
2024-01-16T02:47:06.066Z,99932.34
2024-01-16T02:49:50.874Z,99940.78
2024-01-16T02:52:35.644Z,99938.91
2024-01-16T02:55:20.513Z,99932.50
2024-01-16T02:58:05.412Z,99936.25
2024-01-16T03:00:50.913Z,99940.50
2024-01-16T03:03:36.413Z,99949.41
2024-01-16T03:06:25.473Z,99953.44
2024-01-16T03:09:10.332Z,99953.84
2024-01-16T03:11:55.502Z,99957.06
2024-01-16T03:14:40.581Z,99943.28
2024-01-16T03:17:25.967Z,99949.00
2024-01-16T03:20:11.849Z,99950.13
2024-01-16T03:22:57.093Z,99951.28
2024-01-16T03:25:42.122Z,99958.03
2024-01-16T03:28:27.120Z,99958.25
2024-01-16T03:31:16.011Z,99976.94
2024-01-16T03:34:01.515Z,99959.72
2024-01-16T03:36:46.395Z,99974.63
2024-01-16T03:39:31.281Z,99990.38
2024-01-16T03:42:16.442Z,99993.81
2024-01-16T03:45:01.563Z,99990.31
2024-01-16T03:47:46.450Z,99993.75
2024-01-16T03:50:31.690Z,100006.41
2024-01-16T03:53:16.520Z,100002.66
2024-01-16T03:56:01.449Z,100005.75
2024-01-16T03:58:46.371Z,100003.09
2024-01-16T04:01:35.281Z,100011.75
2024-01-16T04:04:20.796Z,100009.72
2024-01-16T04:07:06.117Z,100019.75
2024-01-16T04:09:50.931Z,100015.19
2024-01-16T04:12:35.891Z,100013.41
2024-01-16T04:15:23.506Z,100005.75
2024-01-16T04:18:08.836Z,100013.78
2024-01-16T04:20:54.201Z,100022.97
2024-01-16T04:23:39.475Z,100016.69
2024-01-16T04:26:24.541Z,100015.25
2024-01-16T04:29:09.375Z,100012.63
2024-01-16T04:31:54.368Z,100011.59
2024-01-16T04:34:39.209Z,100018.38
2024-01-16T04:37:24.160Z,100017.94
2024-01-16T04:40:09.515Z,100017.50
2024-01-16T04:42:54.518Z,100012.94
2024-01-16T04:45:39.588Z,100009.56
2024-01-16T04:48:24.607Z,100002.53
2024-01-16T04:51:09.981Z,100004.88
2024-01-16T04:53:54.905Z,100007.22
2024-01-16T04:56:39.775Z,100006.97
2024-01-16T04:59:25.046Z,100011.16
2024-01-16T05:02:09.950Z,100001.59
2024-01-16T05:04:55.004Z,100000.56
2024-01-16T05:07:40.123Z,99994.47
2024-01-16T05:10:25.323Z,99991.47
2024-01-16T05:13:10.244Z,99979.06
2024-01-16T05:15:55.148Z,99974.78
2024-01-16T05:18:43.105Z,99986.31
2024-01-16T05:21:28.386Z,99978.63
2024-01-16T05:24:13.548Z,99975.50
2024-01-16T05:26:58.348Z,99973.09
2024-01-16T05:29:44.687Z,99979.00
2024-01-16T05:32:30.289Z,99970.28
2024-01-16T05:35:15.682Z,99987.56
2024-01-16T05:38:00.707Z,99980.88
2024-01-16T05:40:45.430Z,99982.19
2024-01-16T05:43:30.511Z,99994.69
2024-01-16T05:46:15.363Z,99976.09
2024-01-16T05:49:00.626Z,99993.16
2024-01-16T05:51:45.794Z,99991.19
2024-01-16T05:54:30.834Z,99991.63
2024-01-16T05:57:15.873Z,99986.63
2024-01-16T06:00:01.115Z,99992.16
2024-01-16T06:02:46.327Z,99994.97
2024-01-16T06:05:31.586Z,99995.63
2024-01-16T06:08:16.429Z,99995.78
2024-01-16T06:11:01.275Z,99991.78
2024-01-16T06:13:46.137Z,99996.66
2024-01-16T06:16:31.155Z,99990.19
2024-01-16T06:19:16.128Z,99998.09
2024-01-16T06:22:01.116Z,99999.50
2024-01-16T06:24:45.947Z,100005.97
2024-01-16T06:27:30.990Z,100011.25
2024-01-16T06:30:16.096Z,100011.03
2024-01-16T06:33:01.336Z,100006.66
2024-01-16T06:35:46.764Z,100010.47
2024-01-16T06:38:32.302Z,100009.84
2024-01-16T06:41:17.484Z,99998.97
2024-01-16T06:44:03.051Z,100006.25
2024-01-16T06:46:48.380Z,99997.88
2024-01-16T06:49:33.383Z,99997.50
2024-01-16T06:52:19.114Z,99993.25
2024-01-16T06:55:04.296Z,99990.69
2024-01-16T06:57:49.394Z,100001.44
2024-01-16T07:00:34.264Z,99991.56
2024-01-16T07:03:19.149Z,99994.81
2024-01-16T07:06:04.441Z,99990.69
2024-01-16T07:08:49.612Z,99994.75
2024-01-16T07:11:34.940Z,100004.97
2024-01-16T07:14:20.300Z,100000.72
2024-01-16T07:17:05.386Z,99994.00
2024-01-16T07:19:50.356Z,100002.75
2024-01-16T07:22:35.709Z,100003.59
2024-01-16T07:25:20.638Z,100008.56
2024-01-16T07:28:05.447Z,100006.25
2024-01-16T07:30:50.303Z,99999.38
2024-01-16T07:33:36.246Z,100010.03
2024-01-16T07:36:21.251Z,100003.97
2024-01-16T07:39:06.040Z,100009.56
2024-01-16T07:41:50.897Z,100010.53
2024-01-16T07:44:36.258Z,100020.56
2024-01-16T07:47:21.054Z,100018.25
2024-01-16T07:50:08.761Z,100021.56
2024-01-16T07:52:53.986Z,100018.28
2024-01-16T07:55:38.977Z,100011.47
2024-01-16T07:58:23.861Z,100019.97
2024-01-16T08:01:08.878Z,100023.47
2024-01-16T08:03:54.280Z,100022.66
2024-01-16T08:06:39.225Z,100027.16
2024-01-16T08:09:24.417Z,100018.28
2024-01-16T08:12:09.338Z,100031.88
2024-01-16T08:14:54.460Z,100030.66
2024-01-16T08:17:40.126Z,100030.06
2024-01-16T08:20:25.334Z,100027.03
2024-01-16T08:23:10.619Z,100022.75
2024-01-16T08:25:55.351Z,100023.53
2024-01-16T08:28:40.246Z,100023.03
2024-01-16T08:31:25.254Z,100020.75
2024-01-16T08:34:10.184Z,100012.16
2024-01-16T08:36:55.404Z,100014.72
2024-01-16T08:39:40.418Z,100010.34
2024-01-16T08:42:25.438Z,100009.63
2024-01-16T08:45:10.757Z,99999.84
2024-01-16T08:47:56.259Z,99997.28
2024-01-16T08:50:41.833Z,99995.03
2024-01-16T08:53:26.853Z,99987.41
2024-01-16T08:56:11.899Z,99998.66
2024-01-16T08:58:56.678Z,99994.31
2024-01-16T09:01:41.719Z,100004.66
2024-01-16T09:04:26.732Z,99995.25
2024-01-16T09:07:12.101Z,100005.50
2024-01-16T09:09:57.552Z,100005.34
2024-01-16T09:12:42.442Z,99993.50
2024-01-16T09:15:27.398Z,99989.31
2024-01-16T09:18:12.402Z,99996.44
2024-01-16T09:20:57.790Z,99994.81
2024-01-16T09:23:43.356Z,99996.16
2024-01-16T09:26:28.435Z,99980.16
2024-01-16T09:29:13.453Z,99980.81
2024-01-16T09:31:58.214Z,99979.13
2024-01-16T09:34:43.276Z,99985.16
2024-01-16T09:37:28.496Z,99982.88
2024-01-16T09:40:13.463Z,99978.75
2024-01-16T09:42:58.384Z,99981.56
2024-01-16T09:45:43.292Z,99967.84
2024-01-16T09:48:30.632Z,99973.03
2024-01-16T09:51:15.549Z,99970.47
2024-01-16T09:54:00.666Z,99971.31
2024-01-16T09:56:52.354Z,99968.88
2024-01-16T09:59:38.372Z,99973.28
2024-01-16T10:02:24.647Z,99972.69
2024-01-16T10:05:11.988Z,99969.97
2024-01-16T10:07:58.046Z,99971.56
2024-01-16T10:10:48.744Z,99978.97
2024-01-16T10:13:35.199Z,99972.06
2024-01-16T10:16:21.684Z,99977.78
2024-01-16T10:19:08.417Z,99958.03
2024-01-16T10:21:53.943Z,99958.38
2024-01-16T10:24:39.032Z,99948.53
2024-01-16T10:27:23.953Z,99961.06
2024-01-16T10:30:09.776Z,99958.59
2024-01-16T10:32:54.851Z,99959.84
2024-01-16T10:35:40.202Z,99952.34
2024-01-16T10:38:25.422Z,99948.06
2024-01-16T10:41:17.308Z,99935.94
2024-01-16T10:44:08.652Z,99928.22
2024-01-16T10:47:10.878Z,99920.38
2024-01-16T10:49:56.013Z,99928.81
2024-01-16T10:52:48.973Z,99922.72
2024-01-16T10:55:53.348Z,99927.72
2024-01-16T10:58:43.414Z,99929.97
2024-01-16T11:01:29.379Z,99922.44
2024-01-16T11:04:16.310Z,99915.41
2024-01-16T11:07:01.664Z,99922.72
2024-01-16T11:09:47.281Z,99915.59
2024-01-16T11:12:34.537Z,99918.81
2024-01-16T11:15:20.551Z,99917.63
2024-01-16T11:18:07.809Z,99913.94
2024-01-16T11:21:04.528Z,99901.22
2024-01-16T11:23:52.848Z,99896.13
2024-01-16T11:26:41.190Z,99893.78
2024-01-16T11:29:29.468Z,99892.31
2024-01-16T11:32:33.898Z,99894.13
2024-01-16T11:35:33.429Z,99883.25
2024-01-16T11:38:19.688Z,99892.66
2024-01-16T11:41:05.413Z,99887.34
2024-01-16T11:43:50.353Z,99896.13
2024-01-16T11:47:06.708Z,99888.66
2024-01-16T11:50:08.407Z,99902.66
2024-01-16T11:52:53.055Z,99909.81
2024-01-16T11:56:16.492Z,99902.19
2024-01-16T11:59:36.515Z,99910.66
2024-01-16T12:02:29.718Z,99892.78
2024-01-16T12:05:15.005Z,99884.13
2024-01-16T12:08:00.315Z,99875.69
2024-01-16T12:10:48.329Z,99861.63
2024-01-16T12:13:33.058Z,99850.50
2024-01-16T12:16:20.170Z,99844.63
2024-01-16T12:19:11.702Z,99824.25
2024-01-16T12:21:58.050Z,99828.44
2024-01-16T12:24:43.023Z,99821.84
2024-01-16T12:27:27.830Z,99812.72
2024-01-16T12:30:13.880Z,99798.69
2024-01-16T12:36:06.313Z,99783.09
2024-01-16T12:38:55.702Z,99766.75
2024-01-16T12:41:45.965Z,99765.03
2024-01-16T12:44:31.286Z,99764.03
2024-01-16T12:47:16.883Z,99765.75
2024-01-16T12:50:02.098Z,99760.44
2024-01-16T12:52:46.880Z,99760.44
2024-01-16T12:55:32.464Z,99760.63
2024-01-16T12:58:18.345Z,99747.09
2024-01-16T13:01:38.462Z,99742.84
2024-01-16T13:04:25.589Z,99739.56
2024-01-16T13:07:10.621Z,99725.84
2024-01-16T13:10:08.873Z,99729.63
2024-01-16T13:13:12.440Z,99730.38
2024-01-16T13:15:58.886Z,99710.13
2024-01-16T13:18:44.174Z,99711.16
2024-01-16T13:21:29.284Z,99710.53
2024-01-16T13:24:14.266Z,99706.34
2024-01-16T13:26:59.296Z,99699.66
2024-01-16T13:29:44.474Z,99690.59
2024-01-16T13:32:29.375Z,99681.16
2024-01-16T13:35:14.747Z,99685.50
2024-01-16T13:37:59.697Z,99677.78
2024-01-16T13:40:44.550Z,99666.66
2024-01-16T13:43:29.354Z,99664.88
2024-01-16T13:46:15.645Z,99659.88
2024-01-16T13:49:02.413Z,99660.09
2024-01-16T13:51:47.650Z,99664.31
2024-01-16T13:54:32.519Z,99666.78
2024-01-16T13:57:17.346Z,99649.59
2024-01-16T14:00:07.468Z,99636.97
2024-01-16T14:02:52.938Z,99641.38
2024-01-16T14:05:38.391Z,99633.78
2024-01-16T14:08:23.792Z,99626.13
2024-01-16T14:11:08.656Z,99614.44
2024-01-16T14:13:53.779Z,99610.00
2024-01-16T14:16:48.402Z,99622.81
2024-01-16T14:19:39.269Z,99609.50
2024-01-16T14:22:24.704Z,99613.69
2024-01-16T14:25:13.185Z,99612.28
2024-01-16T14:28:02.142Z,99610.50
2024-01-16T14:30:47.052Z,99626.00
2024-01-16T14:33:31.993Z,99620.69
2024-01-16T14:36:17.360Z,99629.22
2024-01-16T14:39:02.052Z,99616.91
2024-01-16T14:41:47.154Z,99609.75
2024-01-16T14:44:32.238Z,99620.81
2024-01-16T14:47:17.455Z,99609.03
2024-01-16T14:50:02.553Z,99608.22
2024-01-16T14:52:52.722Z,99610.72
2024-01-16T14:55:38.016Z,99615.06
2024-01-16T14:58:23.060Z,99619.53
2024-01-16T15:01:07.921Z,99612.56
2024-01-16T15:03:52.782Z,99625.72
2024-01-16T15:06:38.132Z,99614.47
2024-01-16T15:09:23.446Z,99601.19
2024-01-16T15:12:08.611Z,99598.72
2024-01-16T15:14:53.899Z,99591.81
2024-01-16T15:17:39.641Z,99589.84
2024-01-16T15:20:24.567Z,99573.44
2024-01-16T15:23:09.551Z,99580.03
2024-01-16T15:25:54.458Z,99576.38
2024-01-16T15:28:41.862Z,99572.69
2024-01-16T15:31:28.203Z,99579.56
2024-01-16T15:34:15.928Z,99568.19
2024-01-16T15:37:02.514Z,99585.91
2024-01-16T15:39:47.482Z,99576.38
2024-01-16T15:42:33.433Z,99592.56
2024-01-16T15:45:18.519Z,99594.59
2024-01-16T15:48:03.659Z,99588.47
2024-01-16T15:50:48.849Z,99579.91
2024-01-16T15:53:34.641Z,99585.00
2024-01-16T15:56:19.975Z,99585.53
2024-01-16T15:59:05.566Z,99584.28
2024-01-16T16:01:50.618Z,99590.19
2024-01-16T16:04:36.693Z,99582.22
2024-01-16T16:07:24.304Z,99587.50
2024-01-16T16:10:10.699Z,99592.22
2024-01-16T16:12:55.810Z,99608.03
2024-01-16T16:15:41.370Z,99610.22
2024-01-16T16:18:26.302Z,99633.88
2024-01-16T16:21:11.534Z,99647.78
2024-01-16T16:23:56.483Z,99656.31
2024-01-16T16:26:41.978Z,99661.34
2024-01-16T16:29:26.928Z,99666.97
2024-01-16T16:32:11.987Z,99683.63
2024-01-16T16:34:57.224Z,99684.38
2024-01-16T16:37:42.210Z,99692.88
2024-01-16T16:40:27.649Z,99703.63
2024-01-16T16:43:12.483Z,99706.91
2024-01-16T16:45:57.987Z,99706.84
2024-01-16T16:48:50.426Z,99720.22
2024-01-16T16:51:35.781Z,99709.63
2024-01-16T16:54:21.376Z,99721.75
2024-01-16T16:57:06.736Z,99722.69
2024-01-16T16:59:51.593Z,99724.06
2024-01-16T17:02:36.543Z,99726.19
2024-01-16T17:05:21.519Z,99724.97
2024-01-16T17:08:06.831Z,99729.16
2024-01-16T17:10:51.727Z,99732.22
2024-01-16T17:13:39.130Z,99731.56
2024-01-16T17:16:24.638Z,99737.19
2024-01-16T17:19:09.900Z,99739.00
2024-01-16T17:21:55.262Z,99732.28
2024-01-16T17:24:40.155Z,99729.47
2024-01-16T17:27:24.953Z,99723.16
2024-01-16T17:30:10.350Z,99720.16
2024-01-16T17:32:55.396Z,99711.09
2024-01-16T17:35:40.646Z,99698.97
2024-01-16T17:38:25.476Z,99698.25
2024-01-16T17:41:10.293Z,99691.38
2024-01-16T17:43:56.241Z,99675.03
2024-01-16T17:46:44.470Z,99684.69
2024-01-16T17:49:32.648Z,99689.56
2024-01-16T17:52:17.814Z,99682.47
2024-01-16T17:55:03.392Z,99686.56
2024-01-16T17:57:48.570Z,99690.81
2024-01-16T18:00:33.466Z,99690.59
2024-01-16T18:03:28.267Z,99704.09
2024-01-16T18:06:22.670Z,99699.97
2024-01-16T18:09:07.982Z,99699.06
2024-01-16T18:11:58.070Z,99701.84
2024-01-16T18:14:43.348Z,99694.91
2024-01-16T18:17:28.797Z,99696.63
2024-01-16T18:20:15.705Z,99696.84
2024-01-16T18:23:00.712Z,99693.13
2024-01-16T18:25:45.663Z,99698.63
2024-01-16T18:28:30.699Z,99692.13
2024-01-16T18:31:17.548Z,99694.16
2024-01-16T18:34:06.059Z,99703.56
2024-01-16T18:36:53.402Z,99703.47
2024-01-16T18:39:38.644Z,99701.06
2024-01-16T18:42:23.675Z,99691.78
2024-01-16T18:45:08.935Z,99686.41
2024-01-16T18:47:54.071Z,99679.75
2024-01-16T18:50:39.498Z,99670.19
2024-01-16T18:53:24.708Z,99675.97
2024-01-16T18:56:14.152Z,99663.16
2024-01-16T18:59:00.048Z,99666.06
2024-01-16T19:01:45.195Z,99661.38
2024-01-16T19:04:30.263Z,99653.84
2024-01-16T19:07:15.100Z,99643.84
2024-01-16T19:10:00.236Z,99646.16
2024-01-16T19:12:46.827Z,99651.22
2024-01-16T19:15:31.771Z,99648.34
2024-01-16T19:18:19.263Z,99654.34
2024-01-16T19:21:06.098Z,99645.47
2024-01-16T19:23:51.100Z,99646.41
2024-01-16T19:26:36.106Z,99651.47
2024-01-16T19:29:21.094Z,99666.03
2024-01-16T19:32:06.510Z,99659.25
2024-01-16T19:34:51.354Z,99659.28
2024-01-16T19:37:36.357Z,99648.00
2024-01-16T19:40:21.369Z,99649.22
2024-01-16T19:43:06.618Z,99636.88
2024-01-16T19:45:52.035Z,99643.59
2024-01-16T19:48:37.354Z,99636.31
2024-01-16T19:51:22.681Z,99633.66
2024-01-16T19:54:08.224Z,99645.53
2024-01-16T19:56:53.373Z,99638.88
2024-01-16T19:59:38.732Z,99639.00
2024-01-16T20:02:23.606Z,99631.13
2024-01-16T20:05:09.827Z,99626.03
2024-01-16T20:07:54.853Z,99626.63
2024-01-16T20:10:39.866Z,99633.84
2024-01-16T20:13:24.742Z,99642.13
2024-01-16T20:16:09.675Z,99651.47
2024-01-16T20:18:55.559Z,99643.72
2024-01-16T20:21:40.343Z,99643.72
2024-01-16T20:24:25.241Z,99633.47
2024-01-16T20:27:10.098Z,99626.59
2024-01-16T20:29:54.903Z,99616.38
2024-01-16T20:32:44.337Z,99611.38
2024-01-16T20:35:29.525Z,99614.66
2024-01-16T20:38:14.471Z,99614.09
2024-01-16T20:40:59.235Z,99597.09
2024-01-16T20:43:44.770Z,99591.06
2024-01-16T20:46:30.124Z,99583.41
2024-01-16T20:49:15.271Z,99571.38
2024-01-16T20:52:00.195Z,99573.13
2024-01-16T20:54:44.957Z,99572.97
2024-01-16T20:57:29.791Z,99562.69
2024-01-16T21:00:15.378Z,99555.22
2024-01-16T21:03:01.306Z,99561.31
2024-01-16T21:05:47.628Z,99546.44
2024-01-16T21:08:32.952Z,99543.03
2024-01-16T21:11:18.193Z,99547.03
2024-01-16T21:14:03.070Z,99542.53
2024-01-16T21:16:48.081Z,99541.75
2024-01-16T21:19:32.889Z,99542.03
2024-01-16T21:22:24.200Z,99543.19
2024-01-16T21:25:15.352Z,99542.91
2024-01-16T21:28:00.305Z,99542.81
2024-01-16T21:30:45.427Z,99556.28
2024-01-16T21:33:34.535Z,99553.66
2024-01-16T21:36:19.979Z,99548.59
2024-01-16T21:39:05.405Z,99546.78
2024-01-16T21:41:50.661Z,99543.97
2024-01-16T21:44:36.160Z,99537.94
2024-01-16T21:47:21.309Z,99549.03
2024-01-16T21:50:07.851Z,99548.81
2024-01-16T21:52:53.125Z,99552.13
2024-01-16T21:55:38.307Z,99552.38
2024-01-16T21:58:23.138Z,99534.09
2024-01-16T22:01:08.079Z,99531.88
2024-01-16T22:03:53.611Z,99525.22
2024-01-16T22:06:38.644Z,99510.00
2024-01-16T22:09:24.098Z,99502.25
2024-01-16T22:12:09.144Z,99503.22
2024-01-16T22:14:53.960Z,99487.19
2024-01-16T22:17:39.670Z,99486.03
2024-01-16T22:20:24.849Z,99475.00
2024-01-16T22:23:10.504Z,99461.44
2024-01-16T22:25:55.985Z,99460.75
2024-01-16T22:28:40.954Z,99465.25
2024-01-16T22:31:25.922Z,99459.97
2024-01-16T22:34:11.640Z,99453.09
2024-01-16T22:36:57.093Z,99448.63
2024-01-16T22:39:41.970Z,99447.56
2024-01-16T22:42:26.859Z,99448.53
2024-01-16T22:45:12.838Z,99443.91
2024-01-16T22:47:59.473Z,99440.69
2024-01-16T22:50:44.878Z,99439.69
2024-01-16T22:53:30.557Z,99425.22
2024-01-16T22:56:15.667Z,99432.59
2024-01-16T22:59:03.941Z,99424.69
2024-01-16T23:01:49.795Z,99430.94
2024-01-16T23:04:37.201Z,99428.69
2024-01-16T23:07:22.282Z,99423.34
2024-01-16T23:10:07.942Z,99409.28
2024-01-16T23:12:53.131Z,99413.75
2024-01-16T23:15:37.925Z,99426.25
2024-01-16T23:18:23.016Z,99421.44
2024-01-16T23:21:11.963Z,99436.31
2024-01-16T23:23:57.047Z,99439.47
2024-01-16T23:26:42.761Z,99427.06
2024-01-16T23:29:27.823Z,99421.91
2024-01-16T23:32:12.790Z,99425.56
2024-01-16T23:34:57.716Z,99423.56
2024-01-16T23:37:43.018Z,99420.00
2024-01-16T23:40:27.946Z,99431.94
2024-01-16T23:43:12.664Z,99425.28
2024-01-16T23:45:57.523Z,99422.38
2024-01-16T23:48:42.424Z,99417.94
2024-01-16T23:51:27.678Z,99420.72
2024-01-16T23:54:13.043Z,99420.78
2024-01-16T23:56:58.992Z,99423.00
2024-01-16T23:59:44.279Z,99422.06
